FW0019 Weather Reports


Display with metric or nautical units.
time (UTC)temp
F
wind
direction
speed
MPH
gust
MPH
rain 1hr
in
rain 24hr
in
rain mn
in
humidity
%
barometer
mb
20221204210045 56 117 10.0 17.0 0.00 0.00 0.00 51 1018.5
20221204204554 56 146 8.0 16.0 0.00 0.00 0.00 50 1018.5
20221204203042 56 161 8.0 16.0 0.00 0.00 0.00 50 1018.7
20221204201542 56 102 9.0 15.0 0.00 0.00 0.00 51 1018.8
20221204200043 56 159 8.0 12.0 0.00 0.00 0.00 51 1018.8
20221204194549 56 134 8.0 14.0 0.00 0.00 0.00 51 1019.0
20221204193045 56 108 8.0 14.0 0.00 0.00 0.00 50 1019.3
20221204191539 57 126 8.0 13.0 0.00 0.00 0.00 47 1019.5
20221204190036 56 131 9.0 11.0 0.00 0.00 0.00 50 1019.8
20221204184532 55 115 6.0 14.0 0.00 0.00 0.00 51 1020.1
20221204183031 54 120 7.0 15.0 0.00 0.00 0.00 55 1020.3
20221204181533 54 113 9.0 14.0 0.00 0.00 0.00 53 1020.5
20221204180030 55 126 7.0 12.0 0.00 0.00 0.00 41 1020.6
20221204174528 54 122 6.0 11.0 0.00 0.00 0.00 40 1020.6
20221204173025 54 100 6.0 9.0 0.00 0.00 0.00 43 1020.6
20221204171520 52 145 4.0 7.0 0.00 0.00 0.00 50 1020.6
20221204170020 52 124 1.0 7.0 0.00 0.00 0.00 55 1020.6
20221204164518 51 267 1.0 7.0 0.00 0.00 0.00 52 1020.7
20221204163025 50 259 0.0 3.0 0.00 0.00 0.00 49 1020.4
20221204161511 47 249 0.0 0.0 0.00 0.00 0.00 59 1020.4
20221204160010 38 264 1.0 2.0 0.00 0.00 0.00 82 1020.4
20221204154508 38 284 2.0 3.0 0.00 0.00 0.00 82 1020.3
20221204153006 37 284 1.0 3.0 0.00 0.00 0.00 84 1020.1
20221204151506 37 267 2.0 4.0 0.00 0.00 0.00 83 1020.0
20221204150005 37 277 1.0 2.0 0.00 0.00 0.00 81 1019.9
20221204144506 37 283 1.0 3.0 0.00 0.00 0.00 80 1019.8
20221204143005 37 281 2.0 3.0 0.00 0.00 0.00 79 1019.7
20221204141507 36 283 2.0 4.0 0.00 0.00 0.00 76 1019.5
20221204140003 37 275 1.0 3.0 0.00 0.00 0.00 76 1019.3
20221204134503 37 293 1.0 3.0 0.00 0.00 0.00 76 1019.2
20221204133101 37 268 1.0 4.0 0.00 0.00 0.00 74 1019.1
20221204131559 38 292 1.0 3.0 0.00 0.00 0.00 75 1019.1
20221204131502 38 292 1.0 3.0 0.00 0.00 0.00 75 1019.0
20221204130057 38 284 1.0 3.0 0.00 0.00 0.00 77 1018.9
20221204124601 38 285 2.0 3.0 0.00 0.00 0.00 70 1019.0
20221204123059 38 291 2.0 3.0 0.00 0.00 0.00 71 1019.0
20221204121553 39 277 1.0 3.0 0.00 0.00 0.00 76 1019.1
20221204120050 40 277 0.0 2.0 0.00 0.00 0.00 69 1019.0
20221204114548 40 277 0.0 2.0 0.00 0.00 0.00 78 1019.0
20221204113046 40 277 0.0 2.0 0.00 0.00 0.00 80 1019.1
20221204111550 41 277 0.0 2.0 0.00 0.00 0.00 78 1019.2
20221204110040 43 243 0.0 0.0 0.00 0.00 0.00 74 1019.2
20221204104540 43 335 0.0 0.0 0.00 0.00 0.00 68 1019.3
20221204103038 44 227 0.0 0.0 0.00 0.00 0.00 69 1019.3
20221204101535 45 259 0.0 3.0 0.00 0.00 0.00 75 1019.3
20221204100033 44 41 0.0 0.0 0.00 0.00 0.00 80 1019.4
20221204094532 45 44 0.0 0.0 0.00 0.00 0.00 79 1019.5
20221204093030 46 266 0.0 4.0 0.00 0.00 0.00 79 1019.4
20221204091540 46 217 0.0 4.0 0.00 0.00 0.00 78 1019.5
20221204090028 46 242 0.0 4.0 0.00 0.00 0.00 78 1019.5
20221204084528 45 276 0.0 0.0 0.00 0.00 0.00 79 1019.4
20221204083024 45 249 0.0 0.0 0.00 0.00 0.00 78 1019.6
20221204081521 46 261 0.0 4.0 0.00 0.00 0.00 76 1019.7
20221204080018 46 151 0.0 4.0 0.00 0.00 0.00 74 1019.9
20221204074556 46 245 0.0 3.0 0.00 0.00 0.00 73 1019.8
20221204073104 46 237 0.0 3.0 0.00 0.00 0.00 72 1019.9
20221204071550 45 248 0.0 0.0 0.00 0.00 0.00 72 1020.0
20221204070055 45 50 0.0 0.0 0.00 0.00 0.00 72 1020.0
20221204064549 45 279 0.0 2.0 0.00 0.00 0.00 73 1020.3
20221204063049 45 227 0.0 0.0 0.00 0.00 0.00 75 1020.3
20221204061559 43 240 0.0 0.0 0.00 0.00 0.00 77 1020.4
20221204060106 42 12 0.0 0.0 0.00 0.00 0.00 78 1020.3
20221204054609 42 12 0.0 0.0 0.00 0.00 0.00 78 1020.4
20221204053059 35 10 3.0 0.0 0.00 0.00 0.00 93 1020.6
20221204051507 34 279 4.0 7.0 0.00 0.00 0.00 93 1020.5
20221204050013 35 301 5.0 9.0 0.00 0.00 0.00 90 1020.4
20221204044509 35 286 6.0 8.0 0.00 0.00 0.00 90 1020.4
20221204043003 36 290 5.0 7.0 0.00 0.00 0.00 90 1020.3
20221204041517 36 285 3.0 5.0 0.00 0.00 0.00 89 1020.1
20221204040018 37 284 6.0 8.0 0.00 0.00 0.00 89 1020.0
20221204034516 37 292 3.0 5.0 0.00 0.00 0.00 86 1019.9
20221204033017 37 324 3.0 5.0 0.00 0.00 0.00 86 1019.8
20221204031540 38 283 4.0 7.0 0.00 0.00 0.00 86 1019.7
20221204030039 39 290 3.0 5.0 0.00 0.00 0.00 83 1019.7
20221204024540 39 304 3.0 5.0 0.00 0.00 0.00 83 1019.8
20221204023039 40 285 6.0 8.0 0.00 0.00 0.00 83 1019.6
20221204021536 41 319 2.0 5.0 0.00 0.00 0.00 80 1019.6
20221204020043 42 312 2.0 5.0 0.00 0.00 0.00 81 1019.5
20221204014550 43 279 3.0 5.0 0.00 0.00 0.00 80 1019.3
20221204013034 45 267 2.0 4.0 0.00 0.00 0.00 78 1019.4
20221204011533 46 287 1.0 3.0 0.00 0.00 0.00 71 1019.3
20221204010033 47 337 1.0 4.0 0.00 0.00 0.00 69 1019.3
20221204004532 47 313 2.0 4.0 0.00 0.00 0.00 69 1019.2
20221204003030 49 288 1.0 3.0 0.00 0.00 0.00 63 1019.2
20221204001530 50 93 1.0 3.0 0.00 0.00 0.00 60 1019.2
20221204000033 51 111 1.0 4.0 0.00 0.00 0.00 58 1018.9
20221203234530 52 122 4.0 7.0 0.00 0.00 0.00 57 1018.7
20221203233029 53 134 3.0 8.0 0.00 0.00 0.00 55 1018.7
20221203231538 54 136 4.0 7.0 0.00 0.00 0.00 53 1018.6
20221203230029 54 130 3.0 7.0 0.00 0.00 0.00 52 1018.6
20221203224524 54 149 3.0 8.0 0.00 0.00 0.00 51 1018.5
20221203223022 55 115 3.0 7.0 0.00 0.00 0.00 51 1018.5
20221203221537 55 115 5.0 9.0 0.00 0.00 0.00 49 1018.6
20221203220023 56 122 5.0 8.0 0.00 0.00 0.00 48 1018.5
20221203214520 55 144 4.0 9.0 0.00 0.00 0.00 48 1018.8
20221203213020 56 137 5.0 10.0 0.00 0.00 0.00 47 1018.8
20221203211521 56 127 5.0 10.0 0.00 0.00 0.00 45 1018.9